Time;durP1;ratioP1;P1;durP2;ratioP2;P2;SDS_P1;SDS_P2;PMS_P1;PMS_P2;Temp;Humidity;BMP_temperature;BMP_pressure;BME280_temperature;BME280_humidity;BME280_pressure;Samples;Min_cycle;Max_cycle;Signal;HPM_P1;HPM_P2
2022/08/25 00:00:50;;;;;;;5.23;4.37;;;;;;;18.19;100.00;96245.47;5070986;28;20271;-78
2022/08/25 00:03:17;;;;;;;7.97;4.60;;;;;;;18.19;100.00;96238.09;5074501;28;20219;-78
2022/08/25 00:05:44;;;;;;;6.40;4.27;;;;;;;18.25;100.00;96236.16;5072462;28;20209;-79
2022/08/25 00:08:11;;;;;;;8.20;4.70;;;;;;;18.28;100.00;96230.13;5082435;28;20194;-79
2022/08/25 00:10:39;;;;;;;6.20;4.20;;;;;;;18.25;100.00;96227.97;5078818;28;20197;-79
2022/08/25 00:13:06;;;;;;;5.10;4.00;;;;;;;18.26;100.00;96226.84;5068893;28;20201;-79
2022/08/25 00:15:35;;;;;;;4.50;4.10;;;;;;;18.29;100.00;96231.78;5074804;28;20252;-79
2022/08/25 00:18:02;;;;;;;4.70;4.30;;;;;;;18.25;100.00;96230.69;5074608;28;20213;-79
2022/08/25 00:20:33;;;;;;;6.30;4.20;;;;;;;18.21;100.00;96235.06;5072371;28;20212;-79
2022/08/25 00:23:00;;;;;;;4.13;3.83;;;;;;;18.08;100.00;96231.03;5069841;28;20228;-78
2022/08/25 00:25:27;;;;;;;4.40;4.00;;;;;;;18.08;100.00;96231.03;5072697;28;20209;-79
2022/08/25 00:27:54;;;;;;;4.43;4.03;;;;;;;18.03;100.00;96234.59;5079083;28;20200;-79
2022/08/25 00:30:21;;;;;;;5.33;4.40;;;;;;;17.99;100.00;96227.25;5080146;28;20300;-79
2022/08/25 00:32:50;;;;;;;6.03;4.43;;;;;;;17.99;100.00;96230.00;5081839;28;20197;-79
2022/08/25 00:35:17;;;;;;;5.63;4.13;;;;;;;17.87;100.00;96218.56;5079709;28;20209;-78
2022/08/25 00:37:44;;;;;;;4.43;4.03;;;;;;;17.78;100.00;96226.50;5073953;28;20211;-78
2022/08/25 00:40:12;;;;;;;6.40;3.93;;;;;;;17.71;100.00;96215.06;5075586;28;20285;-79
2022/08/25 00:42:40;;;;;;;4.57;4.10;;;;;;;17.73;100.00;96219.16;5083624;28;20229;-79
2022/08/25 00:45:08;;;;;;;4.90;4.30;;;;;;;17.68;100.00;96215.66;5082041;28;20296;-79
2022/08/25 00:47:36;;;;;;;5.13;4.63;;;;;;;17.60;100.00;96218.91;5087645;28;20339;-79
2022/08/25 00:50:09;;;;;;;4.60;4.20;;;;;;;17.53;100.00;96221.09;5073028;28;20201;-78
2022/08/25 00:52:39;;;;;;;4.33;3.93;;;;;;;17.46;100.00;96218.66;5073769;28;20201;-79
2022/08/25 00:55:11;;;;;;;6.23;4.30;;;;;;;17.46;100.00;96223.31;5083219;28;20205;-78
2022/08/25 00:57:42;;;;;;;4.97;4.43;;;;;;;17.50;100.00;96221.69;5087554;28;20323;-79
2022/08/25 01:00:15;;;;;;;6.40;4.40;;;;;;;17.52;100.00;96217.59;5080615;28;20274;-79
2022/08/25 01:02:42;;;;;;;4.97;4.50;;;;;;;17.50;100.00;96211.56;5075141;28;20301;-78
2022/08/25 01:05:11;;;;;;;7.17;4.50;;;;;;;17.44;100.00;96214.59;5080884;28;20215;-79
2022/08/25 01:07:39;;;;;;;5.23;3.67;;;;;;;17.44;100.00;96214.59;5087504;28;20205;-79
2022/08/25 01:10:09;;;;;;;4.47;4.07;;;;;;;17.42;100.00;96219.50;5078947;28;20288;-79
2022/08/25 01:12:37;;;;;;;5.17;4.67;;;;;;;17.36;100.00;96224.97;5081064;28;20223;-79
2022/08/25 01:15:07;;;;;;;4.70;4.30;;;;;;;17.26;100.00;96216.81;5076015;28;20237;-78
2022/08/25 01:17:39;;;;;;;7.17;4.17;;;;;;;17.32;100.00;96225.81;5082012;28;20220;-79
2022/08/25 01:20:07;;;;;;;5.30;3.77;;;;;;;17.31;100.00;96230.44;5068142;28;20201;-79
2022/08/25 01:22:36;;;;;;;4.77;4.10;;;;;;;17.30;100.00;96223.34;5079793;28;20309;-79
2022/08/25 01:25:14;;;;;;;6.30;4.27;;;;;;;17.27;100.00;96228.53;5082755;28;20233;-79
2022/08/25 01:27:41;;;;;;;6.10;4.00;;;;;;;17.20;100.00;96226.09;5084978;28;20239;-79
2022/08/25 01:30:09;;;;;;;7.33;4.80;;;;;;;17.18;100.00;96228.25;5075546;28;20197;-79
2022/08/25 01:32:36;;;;;;;4.77;4.00;;;;;;;17.23;100.00;96231.00;5072633;28;20216;-79
2022/08/25 01:35:04;;;;;;;5.00;4.30;;;;;;;17.19;100.00;96229.91;5091826;28;20205;-79
2022/08/25 01:37:35;;;;;;;4.80;4.07;;;;;;;17.18;100.00;96222.81;5073577;28;20204;-78
2022/08/25 01:40:03;;;;;;;4.37;3.63;;;;;;;17.14;100.00;96223.63;5082107;28;20225;-79
2022/08/25 01:42:38;;;;;;;6.20;4.10;;;;;;;17.15;100.00;96217.91;5080370;28;20201;-79
2022/08/25 01:45:06;;;;;;;4.33;3.90;;;;;;;17.19;100.00;96223.63;5083615;28;20211;-79
2022/08/25 01:47:34;;;;;;;4.97;3.90;;;;;;;17.26;100.00;96225.00;5079538;28;20286;-79
2022/08/25 01:50:01;;;;;;;4.83;4.33;;;;;;;17.26;100.00;96214.09;5082124;28;20212;-79
2022/08/25 01:52:31;;;;;;;4.17;3.80;;;;;;;17.26;100.00;96213.28;5082437;28;20208;-78
2022/08/25 01:55:00;;;;;;;4.37;3.97;;;;;;;17.32;100.00;96217.63;5080151;28;20319;-79
2022/08/25 01:57:30;;;;;;;5.00;4.40;;;;;;;17.34;100.00;96220.91;5077987;28;20289;-79
2022/08/25 01:59:57;;;;;;;4.40;3.90;;;;;;;17.13;100.00;96213.81;5091248;28;20312;-79
2022/08/25 02:02:24;;;;;;;4.00;3.70;;;;;;;16.95;100.00;96228.84;5077392;28;20205;-78
2022/08/25 02:04:51;;;;;;;5.00;4.33;;;;;;;16.87;100.00;96222.03;5089773;28;20212;-78
2022/08/25 02:07:19;;;;;;;4.40;4.00;;;;;;;16.89;100.00;96228.03;5093600;28;20254;-79
2022/08/25 02:09:47;;;;;;;5.80;4.70;;;;;;;16.84;100.00;96216.31;5078120;28;20307;-78
2022/08/25 02:12:15;;;;;;;5.00;3.80;;;;;;;16.87;100.00;96215.75;5083022;28;20216;-79
2022/08/25 02:14:42;;;;;;;4.80;4.30;;;;;;;16.82;100.00;96213.03;5074718;28;20202;-79
2022/08/25 02:17:09;;;;;;;4.60;4.20;;;;;;;16.78;100.00;96220.94;5085596;28;20228;-79
2022/08/25 02:19:37;;;;;;;6.43;4.27;;;;;;;16.80;100.00;96220.66;5072465;28;20260;-79
2022/08/25 02:22:04;;;;;;;5.17;4.67;;;;;;;16.77;100.00;96216.56;5081028;28;20201;-79
2022/08/25 02:24:32;;;;;;;3.90;3.60;;;;;;;16.81;100.00;96223.13;5082476;28;20224;-79
2022/08/25 02:26:59;;;;;;;4.23;3.67;;;;;;;16.84;100.00;96216.31;5081876;28;20201;-79
2022/08/25 02:29:27;;;;;;;4.53;3.93;;;;;;;16.75;100.00;96223.41;5075749;28;20237;-79
2022/08/25 02:31:54;;;;;;;6.00;4.07;;;;;;;16.64;100.00;96219.84;5074272;28;20300;-79
2022/08/25 02:34:22;;;;;;;4.00;3.70;;;;;;;16.64;100.00;96222.56;5091114;28;20518;-79
2022/08/25 02:36:50;;;;;;;4.40;4.00;;;;;;;16.59;100.00;96215.16;5080048;28;20197;-79
2022/08/25 02:39:17;;;;;;;5.67;3.93;;;;;;;16.71;100.00;96216.84;5086841;28;20201;-79
2022/08/25 02:41:44;;;;;;;5.20;3.93;;;;;;;16.74;100.00;96222.56;5079768;28;20205;-79
2022/08/25 02:44:11;;;;;;;3.70;3.40;;;;;;;16.78;100.00;96218.19;5073317;28;20229;-79
2022/08/25 02:46:39;;;;;;;4.53;3.70;;;;;;;16.81;100.00;96217.66;5085395;28;20190;-79
2022/08/25 02:49:07;;;;;;;4.07;3.70;;;;;;;16.86;100.00;96219.56;5088580;28;20218;-79
2022/08/25 02:51:35;;;;;;;4.47;4.07;;;;;;;16.85;100.00;96220.66;5081056;28;20219;-79
2022/08/25 02:54:05;;;;;;;4.17;3.70;;;;;;;16.85;100.00;96215.19;5085480;28;20197;-79
2022/08/25 02:56:32;;;;;;;4.47;3.80;;;;;;;16.89;100.00;96219.03;5084587;28;20224;-79
2022/08/25 02:59:00;;;;;;;4.10;3.57;;;;;;;16.82;100.00;96216.56;5087783;28;20197;-79
2022/08/25 03:01:27;;;;;;;5.73;3.80;;;;;;;16.62;100.00;96220.09;5075030;28;20211;-78
2022/08/25 03:03:56;;;;;;;4.63;3.43;;;;;;;16.55;100.00;96214.06;5070617;28;20217;-79
2022/08/25 03:06:24;;;;;;;6.47;4.10;;;;;;;16.62;100.00;96231.00;5082201;28;20205;-79
2022/08/25 03:08:52;;;;;;;4.27;3.50;;;;;;;16.63;100.00;96221.75;5077650;28;20392;-79
2022/08/25 03:11:20;;;;;;;4.00;3.60;;;;;;;16.60;100.00;96222.25;5074970;28;20209;-79
2022/08/25 03:13:49;;;;;;;3.97;3.63;;;;;;;16.57;100.00;96222.81;5086240;28;20210;-79
2022/08/25 03:16:17;;;;;;;4.53;3.63;;;;;;;16.62;100.00;96222.84;5074633;28;20236;-79
2022/08/25 03:18:44;;;;;;;4.63;3.83;;;;;;;16.79;100.00;96224.47;5074160;28;20209;-79
2022/08/25 03:21:13;;;;;;;4.63;4.00;;;;;;;16.76;100.00;96225.03;5076138;28;20210;-78
2022/08/25 03:23:42;;;;;;;4.40;4.00;;;;;;;16.81;100.00;96234.03;5071888;28;20224;-79
2022/08/25 03:28:54;;;;;;;4.30;3.90;;;;;;;16.78;100.00;96236.47;5078942;28;20205;-78
2022/08/25 03:31:21;;;;;;;3.73;3.43;;;;;;;16.79;100.00;96236.19;5085754;28;20278;-79
2022/08/25 03:33:49;;;;;;;7.03;3.63;;;;;;;16.77;100.00;96230.19;5095155;28;20273;-78
2022/08/25 03:36:17;;;;;;;3.97;3.57;;;;;;;16.74;100.00;96238.13;5076453;28;20212;-79
2022/08/25 03:38:44;;;;;;;4.70;3.50;;;;;;;16.68;100.00;96241.91;5084976;28;20201;-79
2022/08/25 03:41:14;;;;;;;5.47;3.83;;;;;;;16.51;100.00;96239.41;5080917;28;20219;-79
2022/08/25 03:43:42;;;;;;;4.83;3.83;;;;;;;16.44;100.00;96241.56;5082331;28;20286;-79
2022/08/25 03:46:09;;;;;;;4.53;3.93;;;;;;;16.37;100.00;96232.84;5083417;28;20210;-79
2022/08/25 03:48:36;;;;;;;6.27;4.00;;;;;;;16.31;100.00;96237.47;5082879;28;20232;-79
2022/08/25 03:51:03;;;;;;;4.30;3.60;;;;;;;16.34;100.00;96239.66;5081251;28;20217;-78
2022/08/25 03:53:31;;;;;;;5.07;3.97;;;;;;;16.36;100.00;96225.75;5082922;28;20204;-79
2022/08/25 03:55:59;;;;;;;3.80;3.50;;;;;;;16.34;100.00;96233.38;5074748;28;20228;-79
2022/08/25 03:58:26;;;;;;;5.47;3.70;;;;;;;16.36;100.00;96228.47;5071279;28;20201;-79
2022/08/25 04:00:53;;;;;;;4.40;4.00;;;;;;;16.35;100.00;96229.56;5078200;28;20219;-78
2022/08/25 04:03:20;;;;;;;5.40;4.13;;;;;;;16.35;100.00;96224.13;5073215;28;20205;-79
2022/08/25 04:05:48;;;;;;;5.50;3.70;;;;;;;16.38;100.00;96229.84;5088082;28;20212;-78
2022/08/25 04:08:14;;;;;;;4.07;3.67;;;;;;;16.34;100.00;96234.19;5084056;28;20221;-78
2022/08/25 04:10:43;;;;;;;4.00;3.70;;;;;;;16.36;100.00;96233.94;5073789;28;20220;-79
2022/08/25 04:13:11;;;;;;;5.60;4.90;;;;;;;16.22;100.00;96233.63;5082083;28;20201;-78
2022/08/25 04:15:42;;;;;;;4.50;4.10;;;;;;;16.07;100.00;96233.59;5076489;28;20229;-78
2022/08/25 04:18:12;;;;;;;6.60;4.47;;;;;;;16.05;100.00;96242.03;5089319;28;20213;-79
2022/08/25 04:20:40;;;;;;;5.47;4.90;;;;;;;15.99;100.00;96245.81;5085009;28;20209;-79
2022/08/25 04:23:08;;;;;;;5.80;4.00;;;;;;;15.98;100.00;96236.03;5066914;28;20201;-79
2022/08/25 04:25:35;;;;;;;4.90;3.93;;;;;;;16.06;100.00;96237.41;5082323;28;20292;-78
2022/08/25 04:28:04;;;;;;;5.47;3.77;;;;;;;16.17;100.00;96239.88;5084530;28;20288;-79
2022/08/25 04:30:31;;;;;;;4.77;3.80;;;;;;;16.13;100.00;96241.50;5082353;28;20229;-78
2022/08/25 04:32:58;;;;;;;4.43;3.93;;;;;;;16.07;100.00;96228.97;5081983;28;20197;-79
2022/08/25 04:35:25;;;;;;;4.67;4.27;;;;;;;16.09;100.00;96237.66;5084812;28;20205;-79
2022/08/25 04:37:55;;;;;;;7.07;4.90;;;;;;;16.14;100.00;96236.88;5083742;28;20197;-79
2022/08/25 04:40:22;;;;;;;4.67;4.23;;;;;;;16.11;100.00;96223.78;5077273;28;20204;-79
2022/08/25 04:42:49;;;;;;;6.80;4.10;;;;;;;16.01;100.00;96218.31;5076621;28;20205;-78
2022/08/25 04:45:18;;;;;;;5.70;4.37;;;;;;;15.95;100.00;96230.28;5074167;28;20311;-79
2022/08/25 04:47:45;;;;;;;10.40;9.37;;;;;;;16.00;100.00;96222.94;5071029;28;20205;-78
2022/08/25 04:50:12;;;;;;;17.73;15.87;;;;;;;16.09;100.00;96228.69;5077211;28;20212;-79
2022/08/25 04:52:39;;;;;;;8.40;7.40;;;;;;;16.08;100.00;96222.41;5090015;28;20205;-78
2022/08/25 04:55:07;;;;;;;4.90;4.40;;;;;;;16.03;100.00;96218.88;5086775;28;20212;-79
2022/08/25 04:57:34;;;;;;;7.13;4.50;;;;;;;16.09;100.00;96231.41;5079689;28;20229;-78
2022/08/25 05:00:01;;;;;;;4.33;3.93;;;;;;;16.02;100.00;96230.84;5074613;28;20208;-78
2022/08/25 05:02:29;;;;;;;4.37;3.97;;;;;;;15.96;100.00;96235.47;5072582;28;20233;-78
2022/08/25 05:04:57;;;;;;;3.90;3.60;;;;;;;16.00;100.00;96228.38;5068364;28;20291;-79
2022/08/25 05:07:23;;;;;;;4.27;3.77;;;;;;;15.93;100.00;96227.00;5085666;28;20209;-79
2022/08/25 05:09:50;;;;;;;3.70;3.40;;;;;;;15.87;100.00;96213.38;5080522;28;20265;-79
2022/08/25 05:12:19;;;;;;;5.23;4.00;;;;;;;15.91;100.00;96226.47;5082723;28;20209;-79
2022/08/25 05:14:46;;;;;;;3.77;3.37;;;;;;;16.00;100.00;96224.84;5082480;28;20203;-79
2022/08/25 05:17:13;;;;;;;4.83;3.60;;;;;;;16.10;100.00;96222.16;5080724;28;20228;-79
2022/08/25 05:19:42;;;;;;;3.67;3.37;;;;;;;16.15;100.00;96228.44;5075632;28;20242;-78
2022/08/25 05:22:09;;;;;;;3.87;3.50;;;;;;;16.18;100.00;96227.91;5078108;28;20296;-79
2022/08/25 05:24:36;;;;;;;4.77;3.80;;;;;;;16.22;100.00;96222.75;5080311;28;20228;-78
2022/08/25 05:27:03;;;;;;;5.30;3.53;;;;;;;16.23;100.00;96224.38;5084586;28;20215;-77
2022/08/25 05:29:30;;;;;;;3.43;3.13;;;;;;;16.31;100.00;96225.75;5085520;28;20215;-78
2022/08/25 05:31:57;;;;;;;3.70;3.40;;;;;;;16.37;100.00;96217.31;5073286;28;20201;-78
2022/08/25 05:34:24;;;;;;;3.77;3.47;;;;;;;16.48;100.00;96218.97;5082296;28;20200;-77
2022/08/25 05:36:53;;;;;;;6.80;4.13;;;;;;;16.46;100.00;96215.69;5077722;28;20213;-78
2022/08/25 05:39:20;;;;;;;4.40;4.00;;;;;;;16.39;100.00;96215.16;5080557;28;20207;-78
2022/08/25 05:41:47;;;;;;;8.03;3.60;;;;;;;16.36;100.00;96214.84;5084524;28;20228;-78
2022/08/25 05:44:15;;;;;;;6.67;4.23;;;;;;;16.37;100.00;96209.13;5083446;28;20212;-78
2022/08/25 05:46:43;;;;;;;4.00;3.60;;;;;;;16.36;100.00;96210.22;5089318;28;20205;-78
2022/08/25 05:49:10;;;;;;;6.50;3.97;;;;;;;16.31;100.00;96207.50;5079605;28;20287;-78
2022/08/25 05:51:37;;;;;;;6.30;4.20;;;;;;;16.22;100.00;96199.03;5083937;28;20311;-78
2022/08/25 05:54:06;;;;;;;6.07;3.73;;;;;;;16.06;100.00;96205.53;5085379;28;20266;-78
2022/08/25 05:56:33;;;;;;;9.40;4.37;;;;;;;16.03;100.00;96194.34;5093169;28;20225;-77
2022/08/25 05:59:00;;;;;;;5.40;4.90;;;;;;;16.05;100.00;96201.19;5073134;28;20205;-77
2022/08/25 06:04:16;;;;;;;6.37;5.10;;;;;;;16.23;100.00;96197.97;5082521;28;20217;-77
2022/08/25 06:06:43;;;;;;;6.30;4.30;;;;;;;16.26;100.00;96199.31;5082434;28;20235;-78
2022/08/25 06:09:12;;;;;;;5.27;4.20;;;;;;;16.29;100.00;96204.22;5087030;28;20215;-78
2022/08/25 06:11:41;;;;;;;5.20;4.30;;;;;;;16.34;100.00;96197.94;5083394;28;20212;-77
2022/08/25 06:14:09;;;;;;;4.30;3.90;;;;;;;16.32;100.00;96192.78;5084828;28;20252;-77
2022/08/25 06:16:37;;;;;;;5.57;4.53;;;;;;;16.28;100.00;96197.13;5078351;28;20323;-77
2022/08/25 06:19:04;;;;;;;6.37;4.40;;;;;;;16.27;100.00;96195.50;5085910;28;20196;-78
2022/08/25 06:21:31;;;;;;;5.10;4.60;;;;;;;16.28;100.00;96181.59;5082024;28;20208;-78
2022/08/25 06:23:58;;;;;;;6.63;4.93;;;;;;;16.34;100.00;96179.69;5072662;28;20206;-78
2022/08/25 06:26:27;;;;;;;7.93;4.80;;;;;;;16.33;100.00;96177.28;5071602;28;20453;-77
2022/08/25 06:28:54;;;;;;;5.17;4.33;;;;;;;16.37;100.00;96179.16;5077558;28;20196;-77
2022/08/25 06:31:22;;;;;;;4.77;4.23;;;;;;;16.33;100.00;96182.72;5075470;28;20412;-77
2022/08/25 06:33:50;;;;;;;6.70;4.70;;;;;;;16.36;100.00;96180.25;5080104;28;20208;-77
2022/08/25 06:36:17;;;;;;;4.20;3.80;;;;;;;16.35;100.00;96175.88;5086274;28;20217;-77
2022/08/25 06:38:45;;;;;;;7.43;4.30;;;;;;;16.38;100.00;96177.25;5092569;28;20208;-77
2022/08/25 06:41:13;;;;;;;4.90;4.50;;;;;;;16.48;100.00;96180.81;5088859;28;20208;-77
2022/08/25 06:43:42;;;;;;;5.27;4.20;;;;;;;16.45;100.00;96181.34;5083021;28;20255;-77
2022/08/25 06:46:11;;;;;;;6.00;4.87;;;;;;;16.42;100.00;96170.97;5081450;28;20213;-77
2022/08/25 06:48:38;;;;;;;6.47;5.63;;;;;;;16.37;100.00;96162.81;5080780;28;20204;-77
2022/08/25 06:51:07;;;;;;;7.00;4.80;;;;;;;16.41;100.00;96172.09;5081090;28;20319;-77
2022/08/25 06:53:35;;;;;;;5.63;5.13;;;;;;;16.41;100.00;96163.94;5077934;28;20213;-77
2022/08/25 06:56:03;;;;;;;7.07;4.37;;;;;;;16.44;100.00;96162.53;5080813;28;20217;-77
2022/08/25 06:58:31;;;;;;;6.03;5.13;;;;;;;16.45;100.00;96159.56;5092541;27;20220;-77
2022/08/25 07:01:08;;;;;;;5.47;4.20;;;;;;;16.51;100.00;96168.53;5080362;28;20232;-76
2022/08/25 07:03:35;;;;;;;4.83;4.43;;;;;;;16.57;100.00;96168.28;5079875;28;20254;-77
2022/08/25 07:06:02;;;;;;;5.63;4.60;;;;;;;16.49;100.00;96160.66;5072373;28;20220;-77
2022/08/25 07:08:30;;;;;;;6.03;4.80;;;;;;;16.49;100.00;96168.00;5094230;28;20222;-77
2022/08/25 07:10:57;;;;;;;6.73;5.27;;;;;;;16.48;100.00;96159.03;5087888;28;20200;-75
2022/08/25 07:13:24;;;;;;;7.90;6.47;;;;;;;16.51;100.00;96154.91;5083705;28;20225;-77
2022/08/25 07:15:54;;;;;;;7.13;5.00;;;;;;;16.48;100.00;96148.13;5082580;28;20292;-76
2022/08/25 07:18:23;;;;;;;5.27;4.27;;;;;;;16.55;100.00;96154.09;5080161;28;20277;-75
2022/08/25 07:20:52;;;;;;;5.13;4.63;;;;;;;16.57;100.00;96162.84;5076062;28;20254;-76
2022/08/25 07:23:20;;;;;;;6.13;5.57;;;;;;;16.63;100.00;96161.78;5091254;28;20203;-76
2022/08/25 07:25:48;;;;;;;6.07;5.13;;;;;;;16.65;100.00;96150.59;5099503;28;20231;-75
2022/08/25 07:28:16;;;;;;;5.37;4.80;;;;;;;16.71;100.00;96152.22;5074463;28;20244;-76
2022/08/25 07:30:43;;;;;;;4.77;4.30;;;;;;;16.73;100.00;96155.50;5083181;28;20286;-76
2022/08/25 07:33:11;;;;;;;5.07;3.90;;;;;;;16.79;100.00;96165.31;5078209;28;20205;-77
2022/08/25 07:35:38;;;;;;;5.73;4.03;;;;;;;16.78;100.00;96152.75;5090962;28;20251;-77
2022/08/25 07:38:08;;;;;;;4.77;4.07;;;;;;;16.80;100.00;96150.59;5085795;28;20209;-77
2022/08/25 07:40:37;;;;;;;4.63;3.67;;;;;;;16.87;100.00;96155.75;5087308;28;20212;-77
2022/08/25 07:43:07;;;;;;;4.13;3.73;;;;;;;16.87;100.00;96150.28;5083563;28;20212;-76
2022/08/25 07:45:38;;;;;;;4.73;3.47;;;;;;;16.88;100.00;96146.47;5076372;28;20218;-76
2022/08/25 07:48:08;;;;;;;4.20;3.80;;;;;;;16.95;100.00;96152.47;5072292;28;20209;-77
2022/08/25 07:50:37;;;;;;;5.93;4.80;;;;;;;17.03;100.00;96149.19;5083822;28;20219;-76
2022/08/25 07:53:06;;;;;;;5.73;3.80;;;;;;;17.09;100.00;96137.19;5084215;28;20232;-77
2022/08/25 07:55:35;;;;;;;4.30;3.57;;;;;;;17.33;100.00;96146.38;5083780;28;20210;-78
2022/08/25 07:58:03;;;;;;;4.40;3.03;;;;;;;17.77;100.00;96153.91;5083503;28;20201;-78
2022/08/25 08:00:32;;;;;;;4.40;3.20;;;;;;;18.06;100.00;96151.25;5077248;28;20208;-77
2022/08/25 08:03:00;;;;;;;3.20;3.00;;;;;;;18.39;100.00;96157.88;5081594;28;20219;-77
2022/08/25 08:05:28;;;;;;;3.60;3.30;;;;;;;18.73;100.00;96150.53;5078617;28;20229;-78
2022/08/25 08:07:56;;;;;;;6.87;2.90;;;;;;;19.14;100.00;96148.22;5084126;28;20200;-77
2022/08/25 08:10:25;;;;;;;3.50;3.13;;;;;;;19.55;100.00;96156.88;5086014;28;20209;-77
2022/08/25 08:12:53;;;;;;;3.43;3.13;;;;;;;19.79;100.00;96156.03;5082527;28;20282;-77
2022/08/25 08:15:21;;;;;;;3.87;3.47;;;;;;;20.10;100.00;96160.00;5074654;28;20233;-77
2022/08/25 08:17:48;;;;;;;4.20;3.15;;;;;;;20.38;100.00;96148.09;5071147;28;20197;-77
2022/08/25 08:20:15;;;;;;;3.47;3.17;;;;;;;20.77;98.84;96149.69;5079832;28;20239;-77
2022/08/25 08:22:44;;;;;;;2.92;2.72;;;;;;;20.88;96.33;96153.88;5085420;28;20197;-77
2022/08/25 08:25:11;;;;;;;3.22;2.92;;;;;;;21.05;93.49;96156.06;5070595;28;20221;-78
2022/08/25 08:27:41;;;;;;;6.65;3.80;;;;;;;21.43;91.93;96146.63;5080277;28;20207;-77
2022/08/25 08:30:09;;;;;;;5.07;3.67;;;;;;;21.82;86.68;96143.34;5083108;28;20246;-78
2022/08/25 08:32:36;;;;;;;3.85;3.38;;;;;;;22.13;83.56;96153.72;5085515;28;20228;-78
2022/08/25 08:35:05;;;;;;;5.13;3.92;;;;;;;22.45;81.27;96161.81;5087997;28;20201;-79
2022/08/25 08:37:32;;;;;;;5.05;3.97;;;;;;;22.54;80.53;96154.41;5077214;28;20197;-78
2022/08/25 08:40:00;;;;;;;6.50;4.10;;;;;;;22.78;79.46;96158.88;5075350;28;20208;-79
2022/08/25 08:42:46;;;;;;;5.70;3.83;;;;;;;22.94;78.53;96151.84;5075719;28;20204;-78
2022/08/25 08:45:29;;;;;;;6.85;3.88;;;;;;;23.09;76.83;96156.97;5073184;28;20213;-78
2022/08/25 08:48:18;;;;;;;4.82;3.80;;;;;;;23.23;75.39;96143.91;5073380;28;20200;-78
2022/08/25 08:50:53;;;;;;;4.60;4.03;;;;;;;23.32;76.33;96157.75;5084143;28;20208;-78
2022/08/25 08:53:27;;;;;;;5.65;4.03;;;;;;;23.12;79.47;96164.63;5083792;28;20221;-78
2022/08/25 08:55:58;;;;;;;4.38;3.97;;;;;;;23.01;79.14;96152.22;5082891;28;20227;-78
2022/08/25 08:58:35;;;;;;;11.00;4.30;;;;;;;23.11;79.08;96160.22;5082949;28;20221;-78
2022/08/25 09:01:02;;;;;;;5.85;4.40;;;;;;;23.32;79.09;96166.00;5081571;28;20216;-79
2022/08/25 09:03:35;;;;;;;6.05;4.45;;;;;;;23.56;79.13;96168.44;5085115;28;20209;-79
2022/08/25 09:06:07;;;;;;;7.07;4.60;;;;;;;23.86;78.34;96173.09;5075165;28;20221;-78
2022/08/25 09:08:36;;;;;;;5.55;4.40;;;;;;;24.08;76.59;96173.00;5070003;28;20205;-78
2022/08/25 09:11:10;;;;;;;4.40;4.00;;;;;;;24.14;72.08;96174.50;5094100;28;20200;-79
2022/08/25 09:13:55;;;;;;;5.72;4.03;;;;;;;24.21;74.36;96178.75;5086685;28;20282;-79
2022/08/25 09:19:31;;;;;;;6.82;4.63;;;;;;;24.34;71.58;96172.25;5067716;28;20239;-78
2022/08/25 09:22:08;;;;;;;4.70;4.30;;;;;;;24.36;71.32;96181.03;5077463;28;20213;-79
2022/08/25 09:24:50;;;;;;;4.45;3.50;;;;;;;24.29;71.01;96181.53;5069642;28;20216;-78
2022/08/25 09:27:26;;;;;;;4.20;3.80;;;;;;;24.31;67.64;96173.75;5085036;28;20213;-79
2022/08/25 09:30:01;;;;;;;4.00;3.60;;;;;;;24.31;69.15;96168.22;5085099;28;20208;-78
2022/08/25 09:32:32;;;;;;;4.45;3.80;;;;;;;24.40;70.37;96173.75;5084303;28;20208;-78
2022/08/25 09:35:02;;;;;;;4.85;4.05;;;;;;;24.51;71.38;96175.03;5082026;28;20206;-78
2022/08/25 09:37:29;;;;;;;4.22;3.85;;;;;;;24.82;69.53;96169.38;5090590;28;20201;-78
2022/08/25 09:39:56;;;;;;;6.68;3.67;;;;;;;24.92;67.59;96160.81;5077361;28;20211;-79
2022/08/25 09:42:47;;;;;;;5.32;3.80;;;;;;;24.93;67.32;96172.63;5072817;28;20201;-79
2022/08/25 09:45:16;;;;;;;4.63;4.05;;;;;;;24.87;69.19;96178.31;5085234;28;20220;-79
2022/08/25 09:47:44;;;;;;;4.00;3.70;;;;;;;24.80;69.40;96174.41;5083160;28;20204;-79
2022/08/25 09:50:17;;;;;;;4.88;3.88;;;;;;;24.88;72.94;96177.19;5080601;28;20197;-79
2022/08/25 09:52:45;;;;;;;4.60;4.15;;;;;;;25.03;69.74;96175.06;5083434;28;20274;-78
2022/08/25 09:55:29;;;;;;;4.38;3.97;;;;;;;25.03;71.32;96166.78;5077652;28;20220;-79
2022/08/25 09:57:57;;;;;;;4.57;4.18;;;;;;;25.17;72.26;96168.25;5078878;28;20231;-79
2022/08/25 10:00:28;;;;;;;6.15;5.10;;;;;;;25.22;72.14;96157.00;5085312;28;20209;-79
2022/08/25 10:03:09;;;;;;;5.90;5.40;;;;;;;25.40;70.66;96166.06;5091636;28;20511;-79
2022/08/25 10:05:49;;;;;;;5.50;4.28;;;;;;;25.50;70.46;96160.19;5078955;28;20223;-79
2022/08/25 10:08:29;;;;;;;6.43;5.80;;;;;;;25.57;69.63;96146.66;5084302;28;20316;-79
2022/08/25 10:10:57;;;;;;;5.38;4.95;;;;;;;25.65;70.27;96153.34;5070898;28;20608;-79
2022/08/25 10:13:39;;;;;;;4.28;3.88;;;;;;;25.69;68.64;96156.25;5071398;28;20206;-79
2022/08/25 10:16:11;;;;;;;5.13;4.30;;;;;;;25.66;69.49;96152.19;5074398;28;20253;-79
2022/08/25 10:18:39;;;;;;;5.63;4.20;;;;;;;25.78;68.84;96143.19;5076373;28;20209;-78
2022/08/25 10:21:11;;;;;;;4.60;4.20;;;;;;;25.99;67.58;96144.06;5076233;28;20189;-78
2022/08/25 10:23:43;;;;;;;5.82;4.00;;;;;;;26.12;67.64;96131.94;5085033;28;20431;-78
2022/08/25 10:26:20;;;;;;;5.70;4.03;;;;;;;26.06;67.74;96133.28;5078376;28;20225;-79
2022/08/25 10:29:06;;;;;;;4.50;4.10;;;;;;;26.24;66.99;96122.91;5081544;28;20215;-79
2022/08/25 10:31:40;;;;;;;4.50;4.15;;;;;;;26.44;67.97;96121.34;5089791;28;20215;-80
2022/08/25 10:34:22;;;;;;;4.47;3.80;;;;;;;26.65;66.15;96114.66;5084576;28;20381;-79
2022/08/25 10:37:05;;;;;;;4.70;3.72;;;;;;;26.75;66.54;96110.66;5083149;28;20227;-79
2022/08/25 10:39:40;;;;;;;4.40;4.10;;;;;;;26.72;65.35;96105.78;5082675;28;20201;-79
2022/08/25 10:42:29;;;;;;;5.18;3.75;;;;;;;26.83;64.83;96106.19;5074704;28;20204;-79
2022/08/25 10:48:13;;;;;;;5.25;3.75;;;;;;;27.13;63.55;96093.06;5086443;28;20214;-79
2022/08/25 10:50:43;;;;;;;5.38;3.92;;;;;;;27.33;60.57;96097.69;5086259;28;20200;-78
2022/08/25 10:53:32;;;;;;;4.30;4.00;;;;;;;27.34;60.39;96093.78;5082128;28;20585;-79
2022/08/25 10:56:08;;;;;;;3.88;3.58;;;;;;;27.32;59.82;96093.31;5090905;28;20281;-79
2022/08/25 10:59:05;;;;;;;3.70;3.40;;;;;;;27.16;61.70;96093.16;5079653;28;20199;-79
2022/08/25 11:01:47;;;;;;;4.30;3.92;;;;;;;27.03;61.27;96086.78;5075180;28;20321;-79
2022/08/25 11:04:24;;;;;;;5.68;4.00;;;;;;;27.30;61.00;96085.34;5077214;28;20193;-79
2022/08/25 11:06:58;;;;;;;4.30;3.85;;;;;;;27.41;59.80;96082.91;5072099;28;20225;-74
2022/08/25 11:09:30;;;;;;;4.22;3.70;;;;;;;27.56;60.79;96067.63;5080000;28;20208;-75
2022/08/25 11:12:03;;;;;;;5.13;4.00;;;;;;;27.77;59.77;96079.41;5082632;28;20305;-78
2022/08/25 11:14:35;;;;;;;5.38;4.00;;;;;;;27.86;60.64;96074.53;5088700;28;20211;-78
2022/08/25 11:17:10;;;;;;;4.35;4.03;;;;;;;28.00;58.73;96076.94;5084758;28;20347;-80
2022/08/25 11:19:44;;;;;;;4.43;3.75;;;;;;;28.07;59.49;96072.44;5081286;28;20308;-78
2022/08/25 11:22:16;;;;;;;3.95;3.65;;;;;;;28.30;57.64;96080.31;5073881;28;20530;-78
2022/08/25 11:24:56;;;;;;;5.40;3.65;;;;;;;28.40;55.75;96069.53;5093583;28;20236;-78
2022/08/25 11:27:31;;;;;;;3.88;3.58;;;;;;;28.44;54.07;96059.31;5076422;28;20224;-78
2022/08/25 11:30:05;;;;;;;4.18;3.78;;;;;;;28.50;55.14;96055.13;5091927;28;20204;-78
2022/08/25 11:32:34;;;;;;;6.45;3.70;;;;;;;28.49;57.21;96053.53;5085160;28;20260;-78
2022/08/25 11:35:06;;;;;;;5.43;4.07;;;;;;;28.66;55.76;96054.38;5086907;28;20200;-78
2022/08/25 11:37:34;;;;;;;5.57;4.00;;;;;;;28.72;55.34;96050.19;5091802;28;20204;-78
2022/08/25 11:40:16;;;;;;;5.22;3.90;;;;;;;28.64;54.20;96045.59;5082703;28;20204;-78
2022/08/25 11:43:01;;;;;;;4.57;4.03;;;;;;;28.80;54.69;96043.69;5077058;28;20201;-77
2022/08/25 11:46:03;;;;;;;4.35;3.95;;;;;;;28.96;54.06;96033.41;5093959;28;20197;-78
2022/08/25 11:48:46;;;;;;;4.25;3.85;;;;;;;28.96;54.84;96030.66;5082307;28;20281;-79
2022/08/25 11:51:31;;;;;;;5.10;3.92;;;;;;;28.91;54.54;96028.94;5095497;28;20212;-78